Kingston, Illinois
Current Conditions -  °F | °C
As of 9:15 AM on Friday 19 Dec 2014 (Local Time) from KDKB Reporting Station
Scattered Clouds Scattered Clouds  
Wind Chill: 18°   Ceiling: Unl
Heat Index: 27°   Visibility: 10mi
Dew Point: 22°   Wind: 9mph
Humidity: 80%   Direction: 20°NNE
Pressure: 30.3"   Gusts: NA
Location:  42.1°N, 88.76°W
Report Text: KDKB 191515Z AUTO 02008KT 10SM SCT013 M03/M06 A3030 RMK AO2 T10281058
Loading
Personal Weather Stations






























Interactive Weather Map New forecast layout! Learn more

10-Day Weather Forecast

Advertisements
Track Severe Weather on mobile